sensor_id;sensor_type;location;lat;lon;timestamp;temperature;humidity
16402;DHT22;8310;44.626;11.176;2023-06-14T00:01:42;20.70;59.70
16402;DHT22;8310;44.626;11.176;2023-06-14T00:04:11;20.70;59.60
16402;DHT22;8310;44.626;11.176;2023-06-14T00:06:39;20.60;59.60
16402;DHT22;8310;44.626;11.176;2023-06-14T00:09:06;20.60;59.70
16402;DHT22;8310;44.626;11.176;2023-06-14T00:11:34;20.60;59.80
16402;DHT22;8310;44.626;11.176;2023-06-14T00:14:02;20.60;59.70
16402;DHT22;8310;44.626;11.176;2023-06-14T00:16:29;20.50;59.70
16402;DHT22;8310;44.626;11.176;2023-06-14T00:18:59;20.50;59.70
16402;DHT22;8310;44.626;11.176;2023-06-14T00:21:28;20.50;59.70
16402;DHT22;8310;44.626;11.176;2023-06-14T00:23:56;20.50;59.80
16402;DHT22;8310;44.626;11.176;2023-06-14T00:26:24;20.40;59.70
16402;DHT22;8310;44.626;11.176;2023-06-14T00:28:52;20.40;59.80
16402;DHT22;8310;44.626;11.176;2023-06-14T00:31:19;20.50;59.90
16402;DHT22;8310;44.626;11.176;2023-06-14T00:33:46;20.40;59.90
16402;DHT22;8310;44.626;11.176;2023-06-14T00:36:16;20.40;60.00
16402;DHT22;8310;44.626;11.176;2023-06-14T00:38:46;20.50;60.00
16402;DHT22;8310;44.626;11.176;2023-06-14T00:41:14;20.50;60.20
16402;DHT22;8310;44.626;11.176;2023-06-14T00:43:41;20.50;59.90
16402;DHT22;8310;44.626;11.176;2023-06-14T00:46:09;20.50;59.80
16402;DHT22;8310;44.626;11.176;2023-06-14T00:48:36;20.40;59.70
16402;DHT22;8310;44.626;11.176;2023-06-14T00:51:04;20.30;59.60
16402;DHT22;8310;44.626;11.176;2023-06-14T00:53:33;20.20;59.80
16402;DHT22;8310;44.626;11.176;2023-06-14T00:56:01;20.10;59.60
16402;DHT22;8310;44.626;11.176;2023-06-14T00:58:29;20.00;59.60
16402;DHT22;8310;44.626;11.176;2023-06-14T01:00:57;20.00;59.90
16402;DHT22;8310;44.626;11.176;2023-06-14T01:03:25;20.00;60.00
16402;DHT22;8310;44.626;11.176;2023-06-14T01:06:02;20.00;60.00
16402;DHT22;8310;44.626;11.176;2023-06-14T01:08:40;20.10;60.10
16402;DHT22;8310;44.626;11.176;2023-06-14T01:11:10;20.10;59.90
16402;DHT22;8310;44.626;11.176;2023-06-14T01:13:38;20.00;59.90
16402;DHT22;8310;44.626;11.176;2023-06-14T01:16:06;20.00;59.90
16402;DHT22;8310;44.626;11.176;2023-06-14T01:18:34;20.00;60.30
16402;DHT22;8310;44.626;11.176;2023-06-14T01:21:01;19.90;61.30
16402;DHT22;8310;44.626;11.176;2023-06-14T01:23:32;19.90;60.30
16402;DHT22;8310;44.626;11.176;2023-06-14T01:26:00;19.80;60.00
16402;DHT22;8310;44.626;11.176;2023-06-14T01:28:28;19.80;60.20
16402;DHT22;8310;44.626;11.176;2023-06-14T01:31:00;19.80;60.30
16402;DHT22;8310;44.626;11.176;2023-06-14T01:33:29;19.80;60.30
16402;DHT22;8310;44.626;11.176;2023-06-14T01:35:57;19.90;60.30
16402;DHT22;8310;44.626;11.176;2023-06-14T01:38:25;19.90;60.20
16402;DHT22;8310;44.626;11.176;2023-06-14T01:40:55;19.90;60.30
16402;DHT22;8310;44.626;11.176;2023-06-14T01:43:24;19.90;60.30
16402;DHT22;8310;44.626;11.176;2023-06-14T01:45:52;19.80;60.30
16402;DHT22;8310;44.626;11.176;2023-06-14T01:48:20;19.80;60.20
16402;DHT22;8310;44.626;11.176;2023-06-14T01:50:48;19.80;60.30
16402;DHT22;8310;44.626;11.176;2023-06-14T01:53:16;19.80;60.30
16402;DHT22;8310;44.626;11.176;2023-06-14T01:55:43;19.80;60.30
16402;DHT22;8310;44.626;11.176;2023-06-14T01:58:15;19.80;60.30
16402;DHT22;8310;44.626;11.176;2023-06-14T02:00:43;19.80;60.30
16402;DHT22;8310;44.626;11.176;2023-06-14T02:03:11;19.80;60.40
16402;DHT22;8310;44.626;11.176;2023-06-14T02:05:39;19.80;60.50
16402;DHT22;8310;44.626;11.176;2023-06-14T02:08:06;19.80;60.40
16402;DHT22;8310;44.626;11.176;2023-06-14T02:10:34;19.80;60.40
16402;DHT22;8310;44.626;11.176;2023-06-14T02:13:01;19.80;60.40
16402;DHT22;8310;44.626;11.176;2023-06-14T02:15:31;19.80;60.50
16402;DHT22;8310;44.626;11.176;2023-06-14T02:18:00;19.80;60.60
16402;DHT22;8310;44.626;11.176;2023-06-14T02:20:28;19.90;60.70
16402;DHT22;8310;44.626;11.176;2023-06-14T02:22:55;19.90;60.70
16402;DHT22;8310;44.626;11.176;2023-06-14T02:25:23;19.90;60.50
16402;DHT22;8310;44.626;11.176;2023-06-14T02:27:50;19.90;60.40
16402;DHT22;8310;44.626;11.176;2023-06-14T02:30:17;19.80;60.20
16402;DHT22;8310;44.626;11.176;2023-06-14T02:32:46;19.70;60.20
16402;DHT22;8310;44.626;11.176;2023-06-14T02:35:14;19.70;60.10
16402;DHT22;8310;44.626;11.176;2023-06-14T02:37:41;19.60;60.10
16402;DHT22;8310;44.626;11.176;2023-06-14T02:40:09;19.60;60.30
16402;DHT22;8310;44.626;11.176;2023-06-14T02:42:36;19.60;60.40
16402;DHT22;8310;44.626;11.176;2023-06-14T02:45:04;19.60;60.40
16402;DHT22;8310;44.626;11.176;2023-06-14T02:47:32;19.60;60.50
16402;DHT22;8310;44.626;11.176;2023-06-14T02:50:01;19.60;60.60
16402;DHT22;8310;44.626;11.176;2023-06-14T02:52:28;19.60;60.50
16402;DHT22;8310;44.626;11.176;2023-06-14T02:54:55;19.60;61.30
16402;DHT22;8310;44.626;11.176;2023-06-14T02:57:23;19.60;60.60
16402;DHT22;8310;44.626;11.176;2023-06-14T02:59:50;19.60;60.60
16402;DHT22;8310;44.626;11.176;2023-06-14T03:02:17;19.60;60.70
16402;DHT22;8310;44.626;11.176;2023-06-14T03:04:45;19.60;60.60
16402;DHT22;8310;44.626;11.176;2023-06-14T03:07:14;19.60;60.80
16402;DHT22;8310;44.626;11.176;2023-06-14T03:09:45;19.60;60.60
16402;DHT22;8310;44.626;11.176;2023-06-14T03:12:12;19.50;60.60
16402;DHT22;8310;44.626;11.176;2023-06-14T03:14:40;19.50;60.70
16402;DHT22;8310;44.626;11.176;2023-06-14T03:17:07;19.50;60.80
16402;DHT22;8310;44.626;11.176;2023-06-14T03:19:35;19.50;60.90
16402;DHT22;8310;44.626;11.176;2023-06-14T03:22:02;19.50;60.80
16402;DHT22;8310;44.626;11.176;2023-06-14T03:24:31;19.60;60.80
16402;DHT22;8310;44.626;11.176;2023-06-14T03:27:02;19.60;60.80
16402;DHT22;8310;44.626;11.176;2023-06-14T03:29:29;19.50;60.70
16402;DHT22;8310;44.626;11.176;2023-06-14T03:31:57;19.50;60.80
16402;DHT22;8310;44.626;11.176;2023-06-14T03:34:24;19.50;60.90
16402;DHT22;8310;44.626;11.176;2023-06-14T03:36:52;19.50;60.80
16402;DHT22;8310;44.626;11.176;2023-06-14T03:39:19;19.50;60.90
16402;DHT22;8310;44.626;11.176;2023-06-14T03:41:48;19.50;60.90
16402;DHT22;8310;44.626;11.176;2023-06-14T03:44:15;19.50;61.00
16402;DHT22;8310;44.626;11.176;2023-06-14T03:46:43;19.50;61.00
16402;DHT22;8310;44.626;11.176;2023-06-14T03:49:11;19.50;61.10
16402;DHT22;8310;44.626;11.176;2023-06-14T03:51:38;19.40;60.80
16402;DHT22;8310;44.626;11.176;2023-06-14T03:54:06;19.40;60.70
16402;DHT22;8310;44.626;11.176;2023-06-14T03:56:33;19.30;60.90
16402;DHT22;8310;44.626;11.176;2023-06-14T03:59:02;19.30;60.80
16402;DHT22;8310;44.626;11.176;2023-06-14T04:01:29;19.20;60.80
16402;DHT22;8310;44.626;11.176;2023-06-14T04:03:56;19.20;60.90
16402;DHT22;8310;44.626;11.176;2023-06-14T04:06:24;19.20;61.20
16402;DHT22;8310;44.626;11.176;2023-06-14T04:08:57;19.10;61.30
16402;DHT22;8310;44.626;11.176;2023-06-14T04:11:29;19.10;61.70
16402;DHT22;8310;44.626;11.176;2023-06-14T04:13:57;19.10;61.60
16402;DHT22;8310;44.626;11.176;2023-06-14T04:16:26;19.10;61.30
16402;DHT22;8310;44.626;11.176;2023-06-14T04:18:54;19.10;61.70
16402;DHT22;8310;44.626;11.176;2023-06-14T04:21:21;19.10;61.40
16402;DHT22;8310;44.626;11.176;2023-06-14T04:23:49;19.10;61.30
16402;DHT22;8310;44.626;11.176;2023-06-14T04:26:23;19.10;61.50
16402;DHT22;8310;44.626;11.176;2023-06-14T04:28:55;19.10;61.90
16402;DHT22;8310;44.626;11.176;2023-06-14T04:31:22;19.20;62.10
16402;DHT22;8310;44.626;11.176;2023-06-14T04:33:51;19.20;62.30
16402;DHT22;8310;44.626;11.176;2023-06-14T04:36:19;19.30;62.30
16402;DHT22;8310;44.626;11.176;2023-06-14T04:38:46;19.40;62.40
16402;DHT22;8310;44.626;11.176;2023-06-14T04:41:17;19.50;62.90
16402;DHT22;8310;44.626;11.176;2023-06-14T04:43:44;19.60;62.70
16402;DHT22;8310;44.626;11.176;2023-06-14T04:46:13;19.60;62.50
16402;DHT22;8310;44.626;11.176;2023-06-14T04:48:40;19.60;63.20
16402;DHT22;8310;44.626;11.176;2023-06-14T04:51:09;19.70;62.40
16402;DHT22;8310;44.626;11.176;2023-06-14T04:53:38;19.70;62.80
16402;DHT22;8310;44.626;11.176;2023-06-14T04:56:06;19.80;62.80
16402;DHT22;8310;44.626;11.176;2023-06-14T04:58:33;19.90;62.60
16402;DHT22;8310;44.626;11.176;2023-06-14T05:01:01;19.90;62.40
16402;DHT22;8310;44.626;11.176;2023-06-14T05:03:28;19.90;62.10
16402;DHT22;8310;44.626;11.176;2023-06-14T05:05:55;19.80;62.10
16402;DHT22;8310;44.626;11.176;2023-06-14T05:08:24;19.80;62.10
16402;DHT22;8310;44.626;11.176;2023-06-14T05:10:52;19.70;62.10
16402;DHT22;8310;44.626;11.176;2023-06-14T05:13:19;19.70;62.30
16402;DHT22;8310;44.626;11.176;2023-06-14T05:15:48;19.70;62.00
16402;DHT22;8310;44.626;11.176;2023-06-14T05:18:15;19.60;62.10
16402;DHT22;8310;44.626;11.176;2023-06-14T05:20:43;19.70;62.70
16402;DHT22;8310;44.626;11.176;2023-06-14T05:23:10;19.70;62.80
16402;DHT22;8310;44.626;11.176;2023-06-14T05:25:43;19.80;62.70
16402;DHT22;8310;44.626;11.176;2023-06-14T05:28:10;19.80;62.80
16402;DHT22;8310;44.626;11.176;2023-06-14T05:30:38;19.90;62.90
16402;DHT22;8310;44.626;11.176;2023-06-14T05:33:06;19.90;63.00
16402;DHT22;8310;44.626;11.176;2023-06-14T05:35:33;20.10;63.40
16402;DHT22;8310;44.626;11.176;2023-06-14T05:38:00;20.10;63.50
16402;DHT22;8310;44.626;11.176;2023-06-14T05:40:27;20.20;63.20
16402;DHT22;8310;44.626;11.176;2023-06-14T05:42:56;20.30;63.20
16402;DHT22;8310;44.626;11.176;2023-06-14T05:45:23;20.30;63.20
16402;DHT22;8310;44.626;11.176;2023-06-14T05:47:51;20.40;63.40
16402;DHT22;8310;44.626;11.176;2023-06-14T05:50:19;20.50;63.50
16402;DHT22;8310;44.626;11.176;2023-06-14T05:52:47;20.60;63.50
16402;DHT22;8310;44.626;11.176;2023-06-14T05:55:15;20.60;63.40
16402;DHT22;8310;44.626;11.176;2023-06-14T05:57:45;20.70;63.50
16402;DHT22;8310;44.626;11.176;2023-06-14T06:00:16;20.70;63.50
16402;DHT22;8310;44.626;11.176;2023-06-14T06:02:43;20.80;63.70
16402;DHT22;8310;44.626;11.176;2023-06-14T06:05:11;20.90;63.80
16402;DHT22;8310;44.626;11.176;2023-06-14T06:07:39;21.00;63.90
16402;DHT22;8310;44.626;11.176;2023-06-14T06:10:06;21.10;64.10
16402;DHT22;8310;44.626;11.176;2023-06-14T06:12:34;21.20;64.00
16402;DHT22;8310;44.626;11.176;2023-06-14T06:15:01;21.30;64.30
16402;DHT22;8310;44.626;11.176;2023-06-14T06:17:31;21.40;64.40
16402;DHT22;8310;44.626;11.176;2023-06-14T06:19:58;21.50;64.70
16402;DHT22;8310;44.626;11.176;2023-06-14T06:22:31;21.60;64.80
16402;DHT22;8310;44.626;11.176;2023-06-14T06:24:59;21.70;64.80
16402;DHT22;8310;44.626;11.176;2023-06-14T06:27:26;21.90;64.90
16402;DHT22;8310;44.626;11.176;2023-06-14T06:29:53;22.00;64.90
16402;DHT22;8310;44.626;11.176;2023-06-14T06:32:21;22.20;65.00
16402;DHT22;8310;44.626;11.176;2023-06-14T06:34:50;22.30;64.90
16402;DHT22;8310;44.626;11.176;2023-06-14T06:37:17;22.40;65.10
16402;DHT22;8310;44.626;11.176;2023-06-14T06:39:44;22.50;65.50
16402;DHT22;8310;44.626;11.176;2023-06-14T06:42:12;22.60;65.30
16402;DHT22;8310;44.626;11.176;2023-06-14T06:44:39;22.80;65.20
16402;DHT22;8310;44.626;11.176;2023-06-14T06:47:07;22.80;65.00
16402;DHT22;8310;44.626;11.176;2023-06-14T06:49:38;22.90;65.10
16402;DHT22;8310;44.626;11.176;2023-06-14T06:52:07;23.00;65.20
16402;DHT22;8310;44.626;11.176;2023-06-14T06:54:34;23.10;65.50
16402;DHT22;8310;44.626;11.176;2023-06-14T06:57:01;23.20;65.20
16402;DHT22;8310;44.626;11.176;2023-06-14T06:59:29;23.20;65.20
16402;DHT22;8310;44.626;11.176;2023-06-14T07:01:56;23.30;65.60
16402;DHT22;8310;44.626;11.176;2023-06-14T07:04:23;23.40;66.00
16402;DHT22;8310;44.626;11.176;2023-06-14T07:06:51;23.50;65.80
16402;DHT22;8310;44.626;11.176;2023-06-14T07:09:19;23.50;65.80
16402;DHT22;8310;44.626;11.176;2023-06-14T07:11:47;23.60;65.80
16402;DHT22;8310;44.626;11.176;2023-06-14T07:14:14;23.70;65.80
16402;DHT22;8310;44.626;11.176;2023-06-14T07:16:41;23.80;65.40
16402;DHT22;8310;44.626;11.176;2023-06-14T07:19:08;23.90;65.30
16402;DHT22;8310;44.626;11.176;2023-06-14T07:21:35;23.90;65.30
16402;DHT22;8310;44.626;11.176;2023-06-14T07:24:04;24.00;65.40
16402;DHT22;8310;44.626;11.176;2023-06-14T07:26:36;24.00;65.40
16402;DHT22;8310;44.626;11.176;2023-06-14T07:29:03;24.10;65.40
16402;DHT22;8310;44.626;11.176;2023-06-14T07:31:30;24.30;65.60
16402;DHT22;8310;44.626;11.176;2023-06-14T07:33:58;24.30;65.70
16402;DHT22;8310;44.626;11.176;2023-06-14T07:36:25;24.40;65.50
16402;DHT22;8310;44.626;11.176;2023-06-14T07:38:52;24.50;65.10
16402;DHT22;8310;44.626;11.176;2023-06-14T07:41:19;24.50;64.80
16402;DHT22;8310;44.626;11.176;2023-06-14T07:43:48;24.40;64.60
16402;DHT22;8310;44.626;11.176;2023-06-14T07:46:16;24.40;64.60
16402;DHT22;8310;44.626;11.176;2023-06-14T07:48:43;24.40;64.90
16402;DHT22;8310;44.626;11.176;2023-06-14T07:51:10;24.50;65.30
16402;DHT22;8310;44.626;11.176;2023-06-14T07:53:38;24.60;65.30
16402;DHT22;8310;44.626;11.176;2023-06-14T07:56:06;24.70;65.40
16402;DHT22;8310;44.626;11.176;2023-06-14T07:58:33;24.70;65.30
16402;DHT22;8310;44.626;11.176;2023-06-14T08:01:01;24.80;65.70
16402;DHT22;8310;44.626;11.176;2023-06-14T08:03:31;24.80;66.40
16402;DHT22;8310;44.626;11.176;2023-06-14T08:06:01;24.90;65.40
16402;DHT22;8310;44.626;11.176;2023-06-14T08:08:28;25.00;65.20
16402;DHT22;8310;44.626;11.176;2023-06-14T08:10:55;25.00;65.40
16402;DHT22;8310;44.626;11.176;2023-06-14T08:13:23;25.10;66.20
16402;DHT22;8310;44.626;11.176;2023-06-14T08:15:51;25.10;65.30
16402;DHT22;8310;44.626;11.176;2023-06-14T08:18:20;25.20;65.40
16402;DHT22;8310;44.626;11.176;2023-06-14T08:20:47;25.30;65.90
16402;DHT22;8310;44.626;11.176;2023-06-14T08:23:15;25.40;66.30
16402;DHT22;8310;44.626;11.176;2023-06-14T08:25:44;25.60;66.10
16402;DHT22;8310;44.626;11.176;2023-06-14T08:28:11;25.80;66.10
16402;DHT22;8310;44.626;11.176;2023-06-14T08:30:39;25.90;66.10
16402;DHT22;8310;44.626;11.176;2023-06-14T08:33:06;26.10;66.00
16402;DHT22;8310;44.626;11.176;2023-06-14T08:35:35;26.10;65.70
16402;DHT22;8310;44.626;11.176;2023-06-14T08:38:03;26.20;65.60
16402;DHT22;8310;44.626;11.176;2023-06-14T08:40:31;26.20;65.20
16402;DHT22;8310;44.626;11.176;2023-06-14T08:42:58;26.10;65.20
16402;DHT22;8310;44.626;11.176;2023-06-14T08:45:26;26.20;65.40
16402;DHT22;8310;44.626;11.176;2023-06-14T08:47:53;26.20;65.50
16402;DHT22;8310;44.626;11.176;2023-06-14T08:50:23;26.30;65.60
16402;DHT22;8310;44.626;11.176;2023-06-14T08:52:53;26.30;65.50
16402;DHT22;8310;44.626;11.176;2023-06-14T08:55:22;26.40;65.40
16402;DHT22;8310;44.626;11.176;2023-06-14T08:57:51;26.40;65.20
16402;DHT22;8310;44.626;11.176;2023-06-14T09:00:18;26.40;65.10
16402;DHT22;8310;44.626;11.176;2023-06-14T09:02:46;26.40;64.90
16402;DHT22;8310;44.626;11.176;2023-06-14T09:05:13;26.40;64.70
16402;DHT22;8310;44.626;11.176;2023-06-14T09:07:43;26.30;64.60
16402;DHT22;8310;44.626;11.176;2023-06-14T09:10:13;26.30;64.70
16402;DHT22;8310;44.626;11.176;2023-06-14T09:12:41;26.30;65.40
16402;DHT22;8310;44.626;11.176;2023-06-14T09:15:09;26.30;64.60
16402;DHT22;8310;44.626;11.176;2023-06-14T09:17:36;26.30;64.60
16402;DHT22;8310;44.626;11.176;2023-06-14T09:20:04;26.30;64.60
16402;DHT22;8310;44.626;11.176;2023-06-14T09:22:34;26.30;64.60
16402;DHT22;8310;44.626;11.176;2023-06-14T09:25:01;26.30;64.50
16402;DHT22;8310;44.626;11.176;2023-06-14T09:27:30;26.30;64.60
16402;DHT22;8310;44.626;11.176;2023-06-14T09:29:57;26.30;64.70
16402;DHT22;8310;44.626;11.176;2023-06-14T09:32:24;26.30;64.60
16402;DHT22;8310;44.626;11.176;2023-06-14T09:34:52;26.40;64.60
16402;DHT22;8310;44.626;11.176;2023-06-14T09:37:28;26.40;64.60
16402;DHT22;8310;44.626;11.176;2023-06-14T09:39:56;26.50;64.80
16402;DHT22;8310;44.626;11.176;2023-06-14T09:42:24;26.60;64.90
16402;DHT22;8310;44.626;11.176;2023-06-14T09:44:53;26.60;64.80
16402;DHT22;8310;44.626;11.176;2023-06-14T09:47:21;26.60;65.00
16402;DHT22;8310;44.626;11.176;2023-06-14T09:49:50;26.80;65.50
16402;DHT22;8310;44.626;11.176;2023-06-14T09:52:18;27.00;65.90
16402;DHT22;8310;44.626;11.176;2023-06-14T09:54:46;27.10;66.10
16402;DHT22;8310;44.626;11.176;2023-06-14T09:57:14;27.40;66.40
16402;DHT22;8310;44.626;11.176;2023-06-14T09:59:42;27.60;66.60
16402;DHT22;8310;44.626;11.176;2023-06-14T10:02:14;27.90;66.70
16402;DHT22;8310;44.626;11.176;2023-06-14T10:04:46;28.10;66.50
16402;DHT22;8310;44.626;11.176;2023-06-14T10:07:14;28.20;66.40
16402;DHT22;8310;44.626;11.176;2023-06-14T10:09:44;28.40;66.10
16402;DHT22;8310;44.626;11.176;2023-06-14T10:12:16;28.50;66.20
16402;DHT22;8310;44.626;11.176;2023-06-14T10:14:47;28.60;65.90
16402;DHT22;8310;44.626;11.176;2023-06-14T10:17:20;28.70;66.00
16402;DHT22;8310;44.626;11.176;2023-06-14T10:19:50;28.80;65.70
16402;DHT22;8310;44.626;11.176;2023-06-14T10:22:19;28.90;65.40
16402;DHT22;8310;44.626;11.176;2023-06-14T10:24:50;29.00;65.90
16402;DHT22;8310;44.626;11.176;2023-06-14T10:27:17;29.00;65.60
16402;DHT22;8310;44.626;11.176;2023-06-14T10:30:05;29.10;65.60
16402;DHT22;8310;44.626;11.176;2023-06-14T10:32:34;29.10;65.20
16402;DHT22;8310;44.626;11.176;2023-06-14T10:35:01;29.10;64.90
16402;DHT22;8310;44.626;11.176;2023-06-14T10:37:31;29.10;64.90
16402;DHT22;8310;44.626;11.176;2023-06-14T10:39:58;29.00;64.70
16402;DHT22;8310;44.626;11.176;2023-06-14T10:42:27;29.00;64.60
16402;DHT22;8310;44.626;11.176;2023-06-14T10:44:55;28.90;64.30
16402;DHT22;8310;44.626;11.176;2023-06-14T10:47:26;28.90;64.50
16402;DHT22;8310;44.626;11.176;2023-06-14T10:49:55;28.90;65.00
16402;DHT22;8310;44.626;11.176;2023-06-14T10:52:25;29.00;65.00
16402;DHT22;8310;44.626;11.176;2023-06-14T10:57:40;29.30;65.60
16402;DHT22;8310;44.626;11.176;2023-06-14T11:00:07;29.50;65.40
16402;DHT22;8310;44.626;11.176;2023-06-14T11:05:48;29.80;65.80
16402;DHT22;8310;44.626;11.176;2023-06-14T11:11:05;30.10;65.80
16402;DHT22;8310;44.626;11.176;2023-06-14T11:13:33;30.20;65.70
16402;DHT22;8310;44.626;11.176;2023-06-14T11:16:00;30.30;65.60
16402;DHT22;8310;44.626;11.176;2023-06-14T11:18:28;30.40;65.20
16402;DHT22;8310;44.626;11.176;2023-06-14T11:20:57;30.40;65.30
16402;DHT22;8310;44.626;11.176;2023-06-14T11:23:24;30.40;65.20
16402;DHT22;8310;44.626;11.176;2023-06-14T11:25:51;30.50;65.30
16402;DHT22;8310;44.626;11.176;2023-06-14T11:28:19;30.50;65.20
16402;DHT22;8310;44.626;11.176;2023-06-14T11:30:47;30.60;65.10
16402;DHT22;8310;44.626;11.176;2023-06-14T11:33:16;30.60;64.50
16402;DHT22;8310;44.626;11.176;2023-06-14T11:35:44;30.60;64.60
16402;DHT22;8310;44.626;11.176;2023-06-14T11:38:13;30.50;64.30
16402;DHT22;8310;44.626;11.176;2023-06-14T11:40:40;30.50;64.20
16402;DHT22;8310;44.626;11.176;2023-06-14T11:43:07;30.40;64.20
16402;DHT22;8310;44.626;11.176;2023-06-14T11:45:35;30.40;64.10
16402;DHT22;8310;44.626;11.176;2023-06-14T11:48:02;30.40;64.00
16402;DHT22;8310;44.626;11.176;2023-06-14T11:50:29;30.30;64.00
16402;DHT22;8310;44.626;11.176;2023-06-14T11:52:57;30.30;64.30
16402;DHT22;8310;44.626;11.176;2023-06-14T11:55:26;30.40;64.60
16402;DHT22;8310;44.626;11.176;2023-06-14T11:57:54;30.50;64.70
16402;DHT22;8310;44.626;11.176;2023-06-14T12:00:24;30.50;64.30
16402;DHT22;8310;44.626;11.176;2023-06-14T12:02:52;30.50;64.00
16402;DHT22;8310;44.626;11.176;2023-06-14T12:05:20;30.50;63.80
16402;DHT22;8310;44.626;11.176;2023-06-14T12:07:48;30.40;63.50
16402;DHT22;8310;44.626;11.176;2023-06-14T12:10:16;30.30;63.30
16402;DHT22;8310;44.626;11.176;2023-06-14T12:12:45;30.20;63.20
16402;DHT22;8310;44.626;11.176;2023-06-14T12:15:12;30.20;63.60
16402;DHT22;8310;44.626;11.176;2023-06-14T12:17:41;30.30;64.10
16402;DHT22;8310;44.626;11.176;2023-06-14T12:20:09;30.30;64.10
16402;DHT22;8310;44.626;11.176;2023-06-14T12:22:39;30.40;64.10
16402;DHT22;8310;44.626;11.176;2023-06-14T12:25:22;30.40;63.80
16402;DHT22;8310;44.626;11.176;2023-06-14T12:27:56;30.40;63.50
16402;DHT22;8310;44.626;11.176;2023-06-14T12:30:24;30.40;63.50
16402;DHT22;8310;44.626;11.176;2023-06-14T12:32:51;30.30;63.40
16402;DHT22;8310;44.626;11.176;2023-06-14T12:35:18;30.30;63.40
16402;DHT22;8310;44.626;11.176;2023-06-14T12:37:46;30.30;63.70
16402;DHT22;8310;44.626;11.176;2023-06-14T12:40:13;30.30;63.60
16402;DHT22;8310;44.626;11.176;2023-06-14T12:42:41;30.40;63.60
16402;DHT22;8310;44.626;11.176;2023-06-14T12:45:10;30.30;63.30
16402;DHT22;8310;44.626;11.176;2023-06-14T12:47:38;30.30;63.00
16402;DHT22;8310;44.626;11.176;2023-06-14T12:50:05;30.20;63.00
16402;DHT22;8310;44.626;11.176;2023-06-14T12:52:33;30.20;63.20
16402;DHT22;8310;44.626;11.176;2023-06-14T12:55:01;30.20;63.50
16402;DHT22;8310;44.626;11.176;2023-06-14T12:57:29;30.30;63.80
16402;DHT22;8310;44.626;11.176;2023-06-14T12:59:57;30.40;63.50
16402;DHT22;8310;44.626;11.176;2023-06-14T13:02:26;30.40;63.00
16402;DHT22;8310;44.626;11.176;2023-06-14T13:04:53;30.30;61.80
16402;DHT22;8310;44.626;11.176;2023-06-14T13:07:20;30.10;61.60
16402;DHT22;8310;44.626;11.176;2023-06-14T13:09:47;29.90;59.60
16402;DHT22;8310;44.626;11.176;2023-06-14T13:12:14;29.60;60.70
16402;DHT22;8310;44.626;11.176;2023-06-14T13:14:41;29.40;60.90
16402;DHT22;8310;44.626;11.176;2023-06-14T13:17:08;29.30;61.40
16402;DHT22;8310;44.626;11.176;2023-06-14T13:19:38;29.20;61.00
16402;DHT22;8310;44.626;11.176;2023-06-14T13:22:05;29.10;61.50
16402;DHT22;8310;44.626;11.176;2023-06-14T13:24:33;29.00;61.00
16402;DHT22;8310;44.626;11.176;2023-06-14T13:27:00;28.90;61.00
16402;DHT22;8310;44.626;11.176;2023-06-14T13:29:27;28.80;59.70
16402;DHT22;8310;44.626;11.176;2023-06-14T13:31:56;28.60;59.30
16402;DHT22;8310;44.626;11.176;2023-06-14T13:34:23;28.50;60.10
16402;DHT22;8310;44.626;11.176;2023-06-14T13:36:52;28.20;60.10
16402;DHT22;8310;44.626;11.176;2023-06-14T13:39:19;28.10;60.10
16402;DHT22;8310;44.626;11.176;2023-06-14T13:41:46;28.00;60.30
16402;DHT22;8310;44.626;11.176;2023-06-14T13:44:14;27.90;60.80
16402;DHT22;8310;44.626;11.176;2023-06-14T13:46:43;27.90;60.90
16402;DHT22;8310;44.626;11.176;2023-06-14T13:49:11;27.90;60.80
16402;DHT22;8310;44.626;11.176;2023-06-14T13:51:41;28.00;61.40
16402;DHT22;8310;44.626;11.176;2023-06-14T13:54:11;28.00;61.00
16402;DHT22;8310;44.626;11.176;2023-06-14T13:56:39;28.00;61.00
16402;DHT22;8310;44.626;11.176;2023-06-14T13:59:06;28.00;60.80
16402;DHT22;8310;44.626;11.176;2023-06-14T14:01:33;27.90;60.70
16402;DHT22;8310;44.626;11.176;2023-06-14T14:04:01;27.90;60.60
16402;DHT22;8310;44.626;11.176;2023-06-14T14:06:28;27.90;61.10
16402;DHT22;8310;44.626;11.176;2023-06-14T14:08:55;27.90;61.00
16402;DHT22;8310;44.626;11.176;2023-06-14T14:11:24;28.00;61.20
16402;DHT22;8310;44.626;11.176;2023-06-14T14:13:53;27.90;60.50
16402;DHT22;8310;44.626;11.176;2023-06-14T14:16:20;27.90;60.00
16402;DHT22;8310;44.626;11.176;2023-06-14T14:18:50;27.80;59.80
16402;DHT22;8310;44.626;11.176;2023-06-14T14:21:18;27.80;60.20
16402;DHT22;8310;44.626;11.176;2023-06-14T14:23:45;27.80;60.40
16402;DHT22;8310;44.626;11.176;2023-06-14T14:26:12;27.70;59.70
16402;DHT22;8310;44.626;11.176;2023-06-14T14:28:41;27.60;59.80
16402;DHT22;8310;44.626;11.176;2023-06-14T14:31:09;27.50;59.80
16402;DHT22;8310;44.626;11.176;2023-06-14T14:33:36;27.40;59.90
16402;DHT22;8310;44.626;11.176;2023-06-14T14:36:03;27.40;60.00
16402;DHT22;8310;44.626;11.176;2023-06-14T14:38:32;27.40;60.00
16402;DHT22;8310;44.626;11.176;2023-06-14T14:40:59;27.30;60.90
16402;DHT22;8310;44.626;11.176;2023-06-14T14:43:26;27.30;60.20
16402;DHT22;8310;44.626;11.176;2023-06-14T14:45:57;27.30;60.10
16402;DHT22;8310;44.626;11.176;2023-06-14T14:48:26;27.20;60.00
16402;DHT22;8310;44.626;11.176;2023-06-14T14:50:53;27.20;60.00
16402;DHT22;8310;44.626;11.176;2023-06-14T14:53:20;27.10;60.00
16402;DHT22;8310;44.626;11.176;2023-06-14T14:55:48;27.10;60.20
16402;DHT22;8310;44.626;11.176;2023-06-14T14:58:18;27.10;60.30
16402;DHT22;8310;44.626;11.176;2023-06-14T15:00:45;27.10;60.30
16402;DHT22;8310;44.626;11.176;2023-06-14T15:03:14;27.10;60.10
16402;DHT22;8310;44.626;11.176;2023-06-14T15:05:42;27.00;60.10
16402;DHT22;8310;44.626;11.176;2023-06-14T15:08:10;27.00;60.20
16402;DHT22;8310;44.626;11.176;2023-06-14T15:10:37;27.00;60.40
16402;DHT22;8310;44.626;11.176;2023-06-14T15:13:05;27.00;60.70
16402;DHT22;8310;44.626;11.176;2023-06-14T15:15:33;27.00;60.60
16402;DHT22;8310;44.626;11.176;2023-06-14T15:18:00;27.00;60.40
16402;DHT22;8310;44.626;11.176;2023-06-14T15:20:29;27.10;60.90
16402;DHT22;8310;44.626;11.176;2023-06-14T15:22:56;27.20;61.00
16402;DHT22;8310;44.626;11.176;2023-06-14T15:25:25;27.20;60.90
16402;DHT22;8310;44.626;11.176;2023-06-14T15:27:52;27.30;61.30
16402;DHT22;8310;44.626;11.176;2023-06-14T15:30:19;27.40;61.40
16402;DHT22;8310;44.626;11.176;2023-06-14T15:32:47;27.50;61.40
16402;DHT22;8310;44.626;11.176;2023-06-14T15:35:14;27.60;61.50
16402;DHT22;8310;44.626;11.176;2023-06-14T15:37:43;27.60;61.50
16402;DHT22;8310;44.626;11.176;2023-06-14T15:40:11;27.70;61.60
16402;DHT22;8310;44.626;11.176;2023-06-14T15:42:38;27.70;60.90
16402;DHT22;8310;44.626;11.176;2023-06-14T15:45:06;27.70;60.90